Time,TemperatureF,DewpointF,PressureIn,WindDirection,WindDirectionDegrees,WindSpeedMPH,WindSpeedGustMPH,Humidity,HourlyPrecipIn,Conditions,Clouds,dailyrainin,SoftwareType,DateUTC
2013-01-29 00:14:00,39.6,39.0,29.89,NW,326,5.0,7.0,99,0.01,,,0.00,weatherlink.com 1.10,2013-01-29 05:14:00,
2013-01-29 00:29:00,39.8,40.0,29.89,WNW,288,4.0,7.0,99,0.01,,,0.00,weatherlink.com 1.10,2013-01-29 05:29:00,
2013-01-29 00:44:00,39.8,40.0,29.89,NW,319,2.0,7.0,99,0.01,,,0.00,weatherlink.com 1.10,2013-01-29 05:44:00,
2013-01-29 00:59:00,39.7,40.0,29.90,NNW,331,4.0,6.0,99,0.01,,,0.01,weatherlink.com 1.10,2013-01-29 05:59:00,
2013-01-29 01:14:00,39.8,40.0,29.90,WNW,298,6.0,6.0,99,0.01,,,0.01,weatherlink.com 1.10,2013-01-29 06:14:00,
2013-01-29 01:29:00,39.6,39.0,29.91,WNW,296,4.0,7.0,99,0.01,,,0.01,weatherlink.com 1.10,2013-01-29 06:29:00,
2013-01-29 01:59:00,37.8,38.0,29.92,North,9,2.0,6.0,99,0.00,,,0.01,weatherlink.com 1.10,2013-01-29 06:59:00,
2013-01-29 02:14:00,37.9,38.0,29.93,North,5,2.0,6.0,99,0.00,,,0.01,weatherlink.com 1.10,2013-01-29 07:14:00,
2013-01-29 02:29:00,37.3,37.0,29.93,North,5,2.0,5.0,99,0.00,,,0.01,weatherlink.com 1.10,2013-01-29 07:29:00,
2013-01-29 02:44:00,37.1,37.0,29.93,NNE,21,1.0,4.0,99,0.00,,,0.01,weatherlink.com 1.10,2013-01-29 07:44:00,
2013-01-29 02:59:00,36.7,37.0,29.93,NNE,28,2.0,4.0,99,0.00,,,0.01,weatherlink.com 1.10,2013-01-29 07:59:00,
2013-01-29 03:14:00,37.0,37.0,29.93,NNE,28,4.0,5.0,99,0.00,,,0.01,weatherlink.com 1.10,2013-01-29 08:14:00,
2013-01-29 03:29:00,37.1,37.0,29.93,NE,41,1.0,2.0,99,0.00,,,0.01,weatherlink.com 1.10,2013-01-29 08:29:00,
2013-01-29 03:44:00,37.2,37.0,29.94,NNE,28,2.0,5.0,99,0.00,,,0.01,weatherlink.com 1.10,2013-01-29 08:44:00,
2013-01-29 03:59:00,36.5,36.0,29.94,NNE,26,2.0,3.0,99,0.00,,,0.01,weatherlink.com 1.10,2013-01-29 08:59:00,
2013-01-29 04:15:00,36.7,37.0,29.94,NE,34,1.0,4.0,99,0.00,,,0.01,weatherlink.com 1.10,2013-01-29 09:15:00,
2013-01-29 04:30:00,36.6,36.0,29.94,NE,35,0.0,1.0,99,0.00,,,0.01,weatherlink.com 1.10,2013-01-29 09:30:00,
2013-01-29 04:45:00,36.4,36.0,29.94,NE,35,0.0,2.0,99,0.00,,,0.01,weatherlink.com 1.10,2013-01-29 09:45:00,
2013-01-29 05:00:00,36.4,36.0,29.95,NE,35,0.0,2.0,99,0.00,,,0.01,weatherlink.com 1.10,2013-01-29 10:00:00,
2013-01-29 05:15:00,36.4,36.0,29.95,East,86,0.0,2.0,99,0.00,,,0.01,weatherlink.com 1.10,2013-01-29 10:15:00,
2013-01-29 05:30:00,36.3,36.0,29.96,East,86,0.0,0.0,99,0.00,,,0.01,weatherlink.com 1.10,2013-01-29 10:30:00,
2013-01-29 05:45:00,36.2,36.0,29.96,East,86,0.0,1.0,99,0.00,,,0.01,weatherlink.com 1.10,2013-01-29 10:45:00,
2013-01-29 06:00:00,36.0,36.0,29.97,East,86,0.0,0.0,99,0.00,,,0.01,weatherlink.com 1.10,2013-01-29 11:00:00,
2013-01-29 06:15:00,35.7,36.0,29.97,East,86,0.0,0.0,99,0.00,,,0.01,weatherlink.com 1.10,2013-01-29 11:15:00,
2013-01-29 06:30:00,35.4,35.0,29.98,East,86,0.0,0.0,99,0.00,,,0.01,weatherlink.com 1.10,2013-01-29 11:30:00,
2013-01-29 06:45:00,35.3,35.0,29.97,East,86,0.0,0.0,99,0.00,,,0.01,weatherlink.com 1.10,2013-01-29 11:45:00,
2013-01-29 07:00:00,35.3,35.0,29.97,East,86,0.0,0.0,99,0.00,,,0.01,weatherlink.com 1.10,2013-01-29 12:00:00,
2013-01-29 07:15:00,35.2,35.0,29.97,East,86,0.0,0.0,99,0.00,,,0.01,weatherlink.com 1.10,2013-01-29 12:15:00,
2013-01-29 07:30:00,35.3,35.0,29.97,East,96,0.0,1.0,99,0.00,,,0.01,weatherlink.com 1.10,2013-01-29 12:30:00,
2013-01-29 07:45:00,35.6,35.0,29.98,ESE,120,0.0,1.0,99,0.00,,,0.01,weatherlink.com 1.10,2013-01-29 12:45:00,
2013-01-29 08:00:00,35.9,36.0,29.97,SE,130,0.0,2.0,99,0.00,,,0.01,weatherlink.com 1.10,2013-01-29 13:00:00,
2013-01-29 08:15:00,36.2,36.0,29.97,SE,132,0.0,1.0,99,0.00,,,0.01,weatherlink.com 1.10,2013-01-29 13:15:00,
2013-01-29 08:30:00,36.5,37.0,29.98,ESE,121,0.0,4.0,100,0.00,,,0.01,weatherlink.com 1.10,2013-01-29 13:30:00,
2013-01-29 08:45:00,36.8,37.0,29.98,SE,138,3.0,4.0,99,0.00,,,0.01,weatherlink.com 1.10,2013-01-29 13:45:00,
2013-01-29 09:00:00,36.8,37.0,29.97,SE,130,5.0,6.0,99,0.00,,,0.01,weatherlink.com 1.10,2013-01-29 14:00:00,
2013-01-29 09:15:00,37.1,37.0,29.98,ESE,119,0.0,6.0,100,0.00,,,0.01,weatherlink.com 1.10,2013-01-29 14:15:00,
2013-01-29 09:30:00,37.5,38.0,29.98,ESE,121,0.0,4.0,100,0.00,,,0.01,weatherlink.com 1.10,2013-01-29 14:30:00,
2013-01-29 09:45:00,38.0,38.0,29.96,ENE,76,1.0,4.0,100,0.00,,,0.01,weatherlink.com 1.10,2013-01-29 14:45:00,
2013-01-29 10:00:00,38.3,38.0,29.96,SSE,148,0.0,4.0,100,0.00,,,0.01,weatherlink.com 1.10,2013-01-29 15:00:00,
2013-01-29 10:15:00,38.9,39.0,29.96,ESE,111,3.0,5.0,100,0.00,,,0.01,weatherlink.com 1.10,2013-01-29 15:15:00,
2013-01-29 10:30:00,38.8,39.0,29.95,SE,133,2.0,7.0,100,0.00,,,0.01,weatherlink.com 1.10,2013-01-29 15:30:00,
2013-01-29 10:45:00,39.5,40.0,29.95,NE,36,2.0,10.0,100,0.00,,,0.01,weatherlink.com 1.10,2013-01-29 15:45:00,
2013-01-29 11:00:00,40.1,40.0,29.94,East,95,1.0,6.0,100,0.00,,,0.01,weatherlink.com 1.10,2013-01-29 16:00:00,
2013-01-29 11:15:00,40.2,40.0,29.95,SE,142,0.0,6.0,100,0.00,,,0.01,weatherlink.com 1.10,2013-01-29 16:15:00,
2013-01-29 11:30:00,40.3,40.0,29.93,NE,51,0.0,6.0,99,0.00,,,0.01,weatherlink.com 1.10,2013-01-29 16:30:00,
2013-01-29 11:45:00,40.7,40.0,29.92,SSW,205,5.0,8.0,98,0.00,,,0.01,weatherlink.com 1.10,2013-01-29 16:45:00,
2013-01-29 12:00:00,40.9,40.0,29.90,SE,126,1.0,10.0,97,0.00,,,0.01,weatherlink.com 1.10,2013-01-29 17:00:00,
2013-01-29 12:15:00,41.2,40.0,29.89,SE,128,5.0,10.0,97,0.00,,,0.01,weatherlink.com 1.10,2013-01-29 17:15:00,
2013-01-29 12:30:00,41.8,41.0,29.88,NNW,327,2.0,8.0,96,0.00,,,0.01,weatherlink.com 1.10,2013-01-29 17:30:00,
2013-01-29 12:45:00,42.0,41.0,29.88,SSE,152,0.0,10.0,95,0.00,,,0.01,weatherlink.com 1.10,2013-01-29 17:45:00,
2013-01-29 13:00:00,42.2,41.0,29.87,SSW,207,2.0,11.0,94,0.00,,,0.01,weatherlink.com 1.10,2013-01-29 18:00:00,
2013-01-29 13:15:00,42.4,41.0,29.86,NW,306,0.0,8.0,94,0.00,,,0.01,weatherlink.com 1.10,2013-01-29 18:15:00,
2013-01-29 13:30:00,42.7,41.0,29.86,ESE,109,2.0,11.0,95,0.00,,,0.01,weatherlink.com 1.10,2013-01-29 18:30:00,
2013-01-29 13:45:00,42.4,41.0,29.86,ESE,118,8.0,18.0,96,0.05,,,0.06,weatherlink.com 1.10,2013-01-29 18:45:00,
2013-01-29 14:00:00,42.3,42.0,29.87,WSW,254,2.0,9.0,97,0.13,,,0.14,weatherlink.com 1.10,2013-01-29 19:00:00,
2013-01-29 14:15:00,42.4,42.0,29.86,SE,138,2.0,11.0,98,0.20,,,0.21,weatherlink.com 1.10,2013-01-29 19:15:00,
2013-01-29 14:30:00,42.6,42.0,29.84,SE,145,1.0,11.0,98,0.20,,,0.21,weatherlink.com 1.10,2013-01-29 19:30:00,
2013-01-29 14:45:00,43.0,43.0,29.82,ESE,123,12.0,13.0,98,0.15,,,0.21,weatherlink.com 1.10,2013-01-29 19:45:00,
2013-01-29 15:00:00,43.2,43.0,29.81,SSE,157,1.0,14.0,98,0.07,,,0.21,weatherlink.com 1.10,2013-01-29 20:00:00,
2013-01-29 15:16:00,43.3,43.0,29.81,ENE,71,2.0,11.0,98,0.00,,,0.21,weatherlink.com 1.10,2013-01-29 20:16:00,
2013-01-29 15:31:00,43.5,43.0,29.81,SE,134,4.0,8.0,98,0.00,,,0.21,weatherlink.com 1.10,2013-01-29 20:31:00,
2013-01-29 15:46:00,44.1,44.0,29.81,ESE,113,7.0,9.0,98,0.00,,,0.21,weatherlink.com 1.10,2013-01-29 20:46:00,
2013-01-29 16:01:00,45.1,44.0,29.81,NE,54,3.0,8.0,97,0.00,,,0.21,weatherlink.com 1.10,2013-01-29 21:01:00,
2013-01-29 16:16:00,45.2,44.0,29.81,WSW,250,1.0,10.0,96,0.00,,,0.21,weatherlink.com 1.10,2013-01-29 21:16:00,
2013-01-29 16:46:00,46.4,45.0,29.82,WNW,298,0.0,5.0,95,0.00,,,0.21,weatherlink.com 1.10,2013-01-29 21:46:00,
2013-01-29 17:01:00,46.6,45.0,29.82,ESE,119,3.0,4.0,95,0.00,,,0.21,weatherlink.com 1.10,2013-01-29 22:01:00,
2013-01-29 17:16:00,46.9,46.0,29.82,ESE,117,1.0,5.0,95,0.00,,,0.21,weatherlink.com 1.10,2013-01-29 22:16:00,
2013-01-29 17:31:00,47.3,46.0,29.82,SSW,209,0.0,5.0,96,0.00,,,0.21,weatherlink.com 1.10,2013-01-29 22:31:00,
2013-01-29 17:46:00,48.0,47.0,29.81,WNW,302,1.0,6.0,95,0.00,,,0.21,weatherlink.com 1.10,2013-01-29 22:46:00,
2013-01-29 18:01:00,48.7,47.0,29.81,ESE,102,0.0,5.0,95,0.00,,,0.21,weatherlink.com 1.10,2013-01-29 23:01:00,
2013-01-29 18:16:00,48.9,48.0,29.81,SE,138,2.0,6.0,95,0.00,,,0.21,weatherlink.com 1.10,2013-01-29 23:16:00,
2013-01-29 18:31:00,49.0,47.0,29.81,ENE,68,0.0,5.0,94,0.00,,,0.21,weatherlink.com 1.10,2013-01-29 23:31:00,
2013-01-29 18:46:00,49.5,48.0,29.81,SSE,164,3.0,7.0,95,0.00,,,0.21,weatherlink.com 1.10,2013-01-29 23:46:00,
2013-01-29 19:01:00,49.7,48.0,29.81,SSW,208,1.0,6.0,94,0.00,,,0.21,weatherlink.com 1.10,2013-01-30 00:01:00,
2013-01-29 19:16:00,49.7,48.0,29.80,NE,35,4.0,8.0,94,0.00,,,0.21,weatherlink.com 1.10,2013-01-30 00:16:00,
2013-01-29 19:31:00,49.5,48.0,29.80,ESE,121,1.0,9.0,94,0.00,,,0.21,weatherlink.com 1.10,2013-01-30 00:31:00,
2013-01-29 19:46:00,50.0,48.0,29.80,East,95,4.0,9.0,94,0.00,,,0.21,weatherlink.com 1.10,2013-01-30 00:46:00,
2013-01-29 20:01:00,49.7,48.0,29.80,East,82,0.0,8.0,94,0.00,,,0.21,weatherlink.com 1.10,2013-01-30 01:01:00,
2013-01-29 20:16:00,49.1,48.0,29.79,NW,317,4.0,10.0,94,0.00,,,0.21,weatherlink.com 1.10,2013-01-30 01:16:00,
2013-01-29 20:31:00,48.6,47.0,29.80,South,175,1.0,8.0,94,0.00,,,0.21,weatherlink.com 1.10,2013-01-30 01:31:00,
2013-01-29 20:46:00,48.3,47.0,29.79,ESE,113,9.0,11.0,95,0.04,,,0.25,weatherlink.com 1.10,2013-01-30 01:46:00,
2013-01-29 21:01:00,48.2,47.0,29.79,SSW,206,4.0,8.0,97,0.04,,,0.25,weatherlink.com 1.10,2013-01-30 02:01:00,
2013-01-29 21:16:00,48.3,48.0,29.79,SSE,159,6.0,9.0,97,0.04,,,0.25,weatherlink.com 1.10,2013-01-30 02:16:00,
2013-01-29 21:31:00,48.4,48.0,29.78,East,98,5.0,10.0,97,0.04,,,0.25,weatherlink.com 1.10,2013-01-30 02:31:00,
2013-01-29 21:46:00,48.4,47.0,29.79,ESE,105,2.0,7.0,96,0.00,,,0.25,weatherlink.com 1.10,2013-01-30 02:46:00,
2013-01-29 22:01:00,48.6,48.0,29.79,ESE,103,0.0,7.0,97,0.00,,,0.25,weatherlink.com 1.10,2013-01-30 03:01:00,
2013-01-29 22:16:00,48.8,48.0,29.80,SE,126,5.0,9.0,96,0.00,,,0.25,weatherlink.com 1.10,2013-01-30 03:16:00,
2013-01-29 22:31:00,49.0,48.0,29.79,ENE,73,0.0,8.0,96,0.01,,,0.26,weatherlink.com 1.10,2013-01-30 03:31:00,
2013-01-29 22:46:00,49.0,48.0,29.78,East,99,5.0,9.0,96,0.02,,,0.27,weatherlink.com 1.10,2013-01-30 03:46:00,
2013-01-29 23:01:00,49.2,48.0,29.77,East,82,3.0,11.0,96,0.02,,,0.27,weatherlink.com 1.10,2013-01-30 04:01:00,
2013-01-29 23:16:00,49.7,49.0,29.76,NE,38,3.0,11.0,96,0.02,,,0.27,weatherlink.com 1.10,2013-01-30 04:16:00,
2013-01-29 23:31:00,50.1,49.0,29.76,ENE,62,1.0,11.0,95,0.00,,,0.27,weatherlink.com 1.10,2013-01-30 04:31:00,
2013-01-29 23:46:00,49.9,49.0,29.76,SW,227,1.0,6.0,95,0.00,,,0.27,weatherlink.com 1.10,2013-01-30 04:46:00,